Mataró





Hora UTC 20:00
Temperatura 8.1 ºC
Subsòl 10 cm 7.4 ºC
Humitat 79.3 %
Pressió 999.9 hPa
Pluja 0.0 mm
Velocitat vent 4.3 km/h
Direcció vent N
Radiació solar 0.1 W/m²

Dades diàries 2021-11-27



Hora UTC (hivern +1h; estiu +2h)
Temperatura (ºC) Humitat (%) Pressió (hPa) Velocitat vent (km/h) Precipitació (mm) Radiació solar (W/m²)
Hora UTC Aire Subsòl 10 cm Humitat Pressió Vel. Dir. Vel. Max Dir. Intent. màx 5 min. Rad. Sol.
00:05 7.2 7.0 73.1 1001.3 22.2 NW 22.2 NNW 0.0 0.1
00:10 7.1 6.9 73.4 1001.2 20.9 NW 31.4 NW 0.0 0.1
00:15 7.0 6.7 74.1 1001.1 21.4 NW 33.9 NW 0.0 0.1
00:20 6.9 6.6 74.5 1001.1 20.9 NW 29.6 NNW 0.0 0.1
00:25 6.8 6.5 74.5 1001.0 18.0 NW 27.9 NNW 0.0 0.1
00:30 6.8 6.5 74.5 1001.0 21.7 NNW 32.1 NNW 0.0 0.1
00:35 6.7 6.5 74.8 1000.9 21.2 NNW 32.1 NNW 0.0 0.1
00:40 6.6 6.4 75.0 1000.9 24.4 NNW 32.8 NNW 0.0 0.1
00:45 6.6 6.3 75.0 1000.9 22.4 NNW 34.6 NNW 0.0 0.1
00:50 6.5 6.3 74.8 1000.8 22.1 NNW 30.7 NW 0.0 0.1
00:55 6.5 6.3 74.3 1000.7 20.2 NNW 28.2 NNW 0.0 0.1
01:00 6.6 6.3 73.2 1000.7 16.0 NW 25.4 NW 0.0 0.1
01:05 6.5 6.2 73.4 1000.7 13.5 NW 19.8 W 0.0 0.1
01:10 6.4 6.1 73.9 1000.7 10.9 NW 22.2 NW 0.0 0.1
01:15 6.3 5.9 74.4 1000.6 13.7 NW 24.3 NW 0.0 0.1
01:20 6.2 5.9 74.7 1000.5 12.9 NW 22.6 NNW 0.0 0.1
01:25 6.1 5.8 74.7 1000.3 17.7 NNW 29.3 NW 0.0 0.1
01:30 6.2 5.9 74.3 1000.2 19.6 NW 30.0 NNW 0.0 0.1
01:35 6.1 5.9 74.4 1000.1 24.4 NNW 33.2 NW 0.0 0.1
01:40 6.1 5.8 74.4 1000.0 25.0 NNW 35.6 NNW 0.0 0.1
01:45 6.2 5.9 73.6 1000.0 23.3 NNW 35.3 NNW 0.0 0.1
01:50 6.2 5.9 73.4 999.9 25.6 NNW 35.3 NNW 0.0 0.1
01:55 6.2 5.9 73.4 999.7 27.8 NNW 39.5 NW 0.0 0.1
02:00 6.2 6.0 73.2 999.9 30.2 NNW 41.3 NW 0.0 0.1
02:05 6.1 5.9 73.6 999.8 24.2 NNW 38.1 NNW 0.0 0.1
02:10 6.0 5.8 73.9 999.6 23.6 NW 33.2 NW 0.0 0.1
02:15 6.0 5.8 74.1 999.4 26.0 NNW 40.6 NNW 0.0 0.1
02:20 6.0 5.8 74.3 999.3 27.6 NNW 36.7 NNW 0.0 0.1
02:25 6.0 5.8 73.9 999.3 29.7 NNW 39.5 N 0.0 0.1
02:30 6.1 5.9 73.7 999.4 24.9 NNW 33.9 NW 0.0 0.1
02:35 6.2 5.9 73.4 999.3 22.1 NNW 34.2 NNW 0.0 0.3
02:40 6.3 6.0 72.6 999.2 22.4 NW 31.8 NNW 0.0 0.1
02:45 6.4 6.1 71.8 999.1 22.8 NW 33.9 NNW 0.0 0.1
02:50 6.5 6.2 71.5 999.0 25.7 NW 36.3 NW 0.0 0.1
02:55 6.3 6.1 72.3 999.1 20.5 NW 32.1 NW 0.0 0.1
03:00 6.2 6.0 72.8 999.0 18.2 NW 32.8 NNW 0.0 0.1
03:05 6.1 5.9 73.5 999.0 17.5 NW 31.1 WNW 0.0 0.1
03:10 6.0 5.8 74.3 998.9 16.4 NW 28.6 NW 0.0 0.1
03:15 5.8 5.6 74.7 998.7 12.2 NW 23.6 WNW 0.0 0.2
03:20 5.8 5.5 74.4 998.6 14.5 NW 28.2 NW 0.0 0.1
03:25 5.7 5.4 74.7 998.5 12.0 NW 30.3 WNW 0.0 0.1
03:30 5.6 5.3 74.8 998.5 10.4 WNW 27.9 WNW 0.0 0.1
03:35 5.5 5.2 75.6 998.6 12.8 W 26.8 WSW 0.0 0.1
03:40 5.5 5.1 75.9 998.7 13.6 W 24.0 WNW 0.0 0.1
03:45 5.4 5.0 76.4 998.6 11.0 WNW 23.3 WSW 0.0 0.1
03:50 5.2 4.8 77.2 998.4 9.4 WNW 20.1 WNW 0.0 0.1
03:55 5.1 4.7 77.9 998.2 8.1 WNW 15.9 W 0.0 0.1
04:00 5.0 4.6 77.9 998.1 10.2 WNW 23.3 NW 0.0 0.1
04:05 5.1 4.7 77.7 998.0 13.5 WNW 25.1 WNW 0.0 0.1
04:10 5.1 4.7 77.5 997.9 12.0 WNW 22.9 WNW 0.0 0.1
04:15 5.1 4.7 77.7 997.8 15.2 NW 26.1 NW 0.0 0.1
04:20 5.2 4.9 77.1 997.7 17.2 NW 28.6 NW 0.0 0.1
04:25 5.3 4.9 76.8 997.5 19.1 NW 32.1 NW 0.0 0.1
04:30 5.4 5.1 76.1 997.4 25.1 NW 36.7 NW 0.0 0.1
04:35 5.6 5.3 75.0 997.4 25.3 NW 37.8 NNW 0.0 0.1
04:40 5.7 5.4 74.4 997.5 20.1 NW 29.6 NW 0.0 0.1
04:45 5.7 5.4 74.3 997.5 16.5 NW 34.9 NW 0.0 0.1
04:50 5.5 5.3 74.9 997.6 15.3 NW 27.2 NW 0.0 0.1
04:55 5.6 5.2 75.1 997.5 16.1 NW 27.9 NW 0.0 0.1
05:00 5.6 5.3 74.9 997.4 19.4 NW 33.5 NW 0.0 0.1
05:05 5.7 5.4 74.8 997.2 23.3 NNW 38.1 NW 0.0 0.1
05:10 5.7 5.4 75.0 997.1 19.8 NW 29.6 NNW 0.0 0.1
05:15 5.7 5.4 75.2 997.0 22.5 NNW 37.4 NNW 0.0 0.1
05:20 5.8 5.5 75.0 997.0 20.5 NW 33.2 NW 0.0 0.1
05:25 5.7 5.5 75.4 997.0 19.9 NW 38.1 NW 0.0 0.1
05:30 5.8 5.5 75.2 997.0 22.0 NW 36.3 WNW 0.0 0.1
05:35 5.7 5.5 75.5 996.9 19.6 NW 29.3 NNW 0.0 0.1
05:40 5.7 5.4 76.1 996.8 20.6 NW 33.5 NNW 0.0 0.1
05:45 5.6 5.4 76.3 996.8 20.0 NW 32.5 NNW 0.0 0.1
05:50 5.6 5.3 76.7 996.9 17.5 NW 33.2 NW 0.0 0.1
05:55 5.5 5.3 77.0 996.9 17.4 NW 29.6 NNW 0.0 0.1
06:00 5.5 5.2 77.1 996.8 18.8 NW 33.2 NW 0.0 0.1
06:05 5.6 5.3 76.5 996.6 17.6 NW 28.2 WNW 0.0 0.1
06:10 5.6 5.3 76.6 996.5 13.8 NW 24.0 NNW 0.0 0.1
06:15 5.6 5.3 76.7 996.5 18.1 NW 31.1 WNW 0.0 0.1
06:20 5.9 5.6 75.9 996.5 20.6 NW 33.9 NW 0.0 0.1
06:25 6.0 5.7 75.4 996.5 15.8 NW 28.2 WNW 0.0 0.1
06:30 6.0 5.7 75.8 996.5 15.4 NW 25.8 NNW 0.0 0.1
06:35 5.9 5.6 76.3 996.5 14.1 NW 25.8 NNW 0.0 0.3
06:40 6.0 5.7 76.2 996.6 11.1 WNW 27.9 WNW 0.0 0.7
06:45 5.9 5.6 76.5 996.6 13.2 NW 24.7 NW 0.0 1.5
06:50 5.9 5.7 76.5 996.6 14.8 NW 24.3 NW 0.0 2.8
06:55 6.1 5.7 76.1 996.6 15.0 NW 25.1 NNW 0.0 4.3
07:00 6.1 5.8 75.9 996.6 13.4 NW 21.9 NW 0.0 9.0
07:05 6.0 5.7 76.4 996.5 12.1 NW 24.7 WNW 0.0 7.6
07:10 6.0 5.7 76.4 996.5 14.2 NW 29.3 WNW 0.0 9.6
07:15 6.1 5.8 76.3 996.5 13.1 NW 22.6 NW 0.0 18.4
07:20 6.2 6.1 76.4 996.6 7.1 WNW 16.2 NW 0.0 34.9
07:25 6.2 6.2 76.4 996.7 7.5 NNW 18.7 N 0.0 37.0
07:30 6.4 6.7 76.2 996.6 10.7 NW 19.8 N 0.0 76.5
07:35 6.5 7.5 76.0 996.5 6.5 WNW 17.6 NW 0.0 89.5
07:40 6.8 8.2 75.0 996.5 6.5 W 18.4 SW 0.0 104.1
07:45 7.1 8.6 74.2 996.6 4.6 SSW 20.5 SW 0.0 109.7
07:50 7.3 8.6 73.6 996.8 4.2 W 14.1 WNW 0.0 128.2
07:55 7.5 8.3 73.3 996.9 6.0 SW 11.6 SW 0.0 144.5
08:00 7.6 8.9 72.9 996.9 8.3 SW 18.4 SW 0.0 158.9
08:05 7.7 9.2 72.8 997.0 9.9 WSW 19.1 SW 0.0 177.4
08:10 7.9 9.4 72.8 997.0 8.5 SW 20.5 SW 0.0 177.5
08:15 8.2 10.0 72.1 997.1 7.3 WSW 13.8 WSW 0.0 213.1
08:20 8.5 10.8 71.6 997.2 6.8 W 15.5 W 0.0 246.2
08:25 8.9 11.4 70.1 997.2 12.1 W 21.5 SW 0.0 268.1
08:30 9.3 11.8 68.8 997.2 11.4 W 21.9 WNW 0.0 280.4
08:35 9.4 12.1 68.1 997.2 10.9 W 23.6 W 0.0 278.2
08:40 9.5 11.9 67.6 997.1 14.7 W 25.4 W 0.0 264.0
08:45 9.4 11.5 67.5 997.2 12.9 WSW 22.9 W 0.0 279.3
08:50 9.5 11.6 67.6 997.2 11.4 WSW 24.3 WSW 0.0 293.6
08:55 9.7 11.9 66.9 997.3 13.2 W 24.3 W 0.0 299.1
09:00 9.8 12.1 66.5 997.3 13.9 W 23.3 WSW 0.0 316.6
09:05 9.9 12.5 66.4 997.4 9.9 WNW 19.8 W 0.0 339.5
09:10 10.1 12.6 66.4 997.4 4.8 WNW 14.5 WNW 0.0 353.4
09:15 10.4 13.2 65.5 997.4 8.6 W 22.9 W 0.0 382.5
09:20 10.4 12.9 64.6 997.4 12.8 W 23.3 WNW 0.0 371.1
09:25 10.4 12.9 65.0 997.4 11.6 W 21.5 W 0.0 346.2
09:30 10.5 12.8 64.8 997.5 11.8 W 22.2 W 0.0 325.9
09:35 10.3 12.6 64.6 997.5 10.2 W 18.7 W 0.0 260.9
09:40 10.2 12.4 65.0 997.6 11.4 W 21.5 W 0.0 237.8
09:45 10.1 12.2 65.8 997.6 8.2 W 16.9 W 0.0 319.1
09:50 10.2 12.4 65.0 997.6 7.9 W 18.4 WNW 0.0 229.8
09:55 10.5 12.9 64.8 997.6 7.4 W 19.1 WSW 0.0 363.6
10:00 10.7 13.8 64.0 997.5 7.7 WNW 15.9 WNW 0.0 357.8
10:05 10.9 13.9 62.6 997.5 10.9 W 21.9 WSW 0.0 406.4
10:10 11.1 14.2 61.7 997.4 10.4 W 25.4 WSW 0.0 412.8
10:15 11.2 14.4 61.1 997.4 16.5 W 26.5 WNW 0.0 418.2
10:20 11.3 14.5 61.2 997.3 16.4 W 27.5 WSW 0.0 431.0
10:25 11.3 14.7 60.7 997.3 14.4 W 33.5 WSW 0.0 445.4
10:30 11.4 14.5 60.6 997.2 15.4 W 26.1 W 0.0 444.4
10:35 11.4 14.5 60.9 997.2 13.9 W 30.3 W 0.0 458.0
10:40 11.6 15.0 60.6 997.1 10.8 W 29.6 WSW 0.0 452.2
10:45 11.5 14.6 60.1 997.1 15.8 W 28.9 SW 0.0 439.8
10:50 11.4 14.6 60.1 997.1 12.1 W 26.8 W 0.0 383.7
10:55 11.5 14.5 60.8 997.0 12.7 W 27.9 WSW 0.0 411.7
11:00 11.7 15.1 60.5 997.0 8.6 W 20.8 W 0.0 435.8
11:05 11.5 14.4 60.0 996.9 14.8 W 32.1 WNW 0.0 368.1
11:10 11.7 15.1 61.2 996.8 8.7 NW 21.5 NW 0.0 458.6
11:15 11.8 15.1 59.8 996.8 17.4 NW 32.8 N 0.0 464.1
11:20 11.7 14.8 60.7 996.8 12.7 WNW 29.6 WSW 0.0 417.9
11:25 11.9 15.6 60.3 996.7 8.6 NW 18.4 W 0.0 467.8
11:30 12.2 16.2 59.3 996.8 11.7 W 31.1 NW 0.0 473.3
11:35 12.3 16.3 58.9 996.7 12.3 W 31.4 W 0.0 457.0
11:40 12.2 15.8 58.5 996.7 15.6 WNW 34.6 W 0.0 502.7
11:45 12.0 15.7 59.3 996.6 15.9 NW 33.2 NW 0.0 488.8
11:50 12.0 15.5 59.2 996.6 16.7 WNW 34.2 WNW 0.0 500.6
11:55 12.1 16.1 59.9 996.5 12.2 NW 26.1 W 0.0 518.0
12:00 12.4 16.8 59.8 996.5 11.6 NW 20.8 NW 0.0 524.5
12:05 12.1 16.6 59.1 996.4 20.2 NW 34.9 NW 0.0 540.1
12:10 12.2 16.8 60.0 996.4 12.4 WNW 28.2 NW 0.0 536.5
12:15 12.4 16.9 59.4 996.4 13.3 NW 24.3 N 0.0 480.9
12:20 12.0 16.2 60.2 996.4 9.3 NW 18.4 NW 0.0 267.9
12:25 11.7 15.2 60.3 996.5 12.2 NW 25.8 NW 0.0 228.7
12:30 11.4 14.0 60.8 996.5 14.8 NW 26.1 NNW 0.0 177.2
12:35 11.2 13.3 61.5 996.3 12.6 NW 19.8 NNW 0.0 189.3
12:40 11.2 13.2 61.8 996.2 10.0 NW 19.1 NW 0.0 328.3
12:45 11.7 14.5 60.5 996.1 12.7 NW 22.2 ENE 0.0 438.0
12:50 11.8 15.0 58.8 996.1 12.8 NNW 23.6 NNW 0.0 345.0
12:55 11.9 14.9 58.8 996.0 11.5 NW 21.9 NW 0.0 321.6
13:00 11.9 14.6 58.0 996.0 11.2 NW 24.3 NW 0.0 273.4
13:05 11.8 14.5 58.1 996.1 11.1 NW 21.9 N 0.0 267.4
13:10 11.7 14.2 58.8 996.1 10.4 NNW 18.4 NNW 0.0 219.6
13:15 11.7 14.1 59.6 996.2 9.2 NNW 18.4 NNW 0.0 225.8
13:20 11.6 13.8 59.0 996.3 11.6 NNW 22.6 NNW 0.0 181.2
13:25 11.4 13.3 59.1 996.4 11.0 NNW 17.6 NNW 0.0 105.1
13:30 11.3 12.7 59.6 996.4 10.0 NW 16.6 NW 0.0 106.7
13:35 11.3 12.5 60.2 996.4 6.5 NW 13.1 NW 0.0 103.1
13:40 11.3 12.4 60.8 996.3 6.0 NW 11.6 NW 0.0 111.2
13:45 11.3 12.4 60.3 996.5 6.1 NW 13.8 NW 0.0 108.1
13:50 11.3 12.4 60.1 996.6 7.8 NW 12.4 NW 0.0 104.3
13:55 11.3 12.3 60.7 996.6 8.0 NW 14.5 WNW 0.0 103.3
14:00 11.3 12.3 60.3 996.7 9.0 NW 13.1 NW 0.0 99.9
14:05 11.3 12.3 59.9 996.7 6.0 NW 8.8 NW 0.0 130.6
14:10 11.4 12.6 60.5 996.7 7.7 NNW 13.1 NNW 0.0 145.1
14:15 11.4 12.8 59.6 996.7 6.0 NW 10.2 NNW 0.0 152.9
14:20 11.5 13.0 60.0 996.6 4.0 WNW 7.1 WNW 0.0 147.1
14:25 11.6 13.0 59.6 996.6 4.6 WNW 8.8 WNW 0.0 111.6
14:30 11.5 13.0 59.0 996.8 6.5 NW 10.2 NW 0.0 79.8
14:35 11.3 12.5 60.3 996.9 8.2 NW 11.3 NW 0.0 77.2
14:40 11.2 12.2 60.9 996.9 7.9 NW 10.9 NW 0.0 77.5
14:45 11.1 12.0 61.8 997.1 8.5 NW 12.4 NW 0.0 67.3
14:50 11.1 11.7 61.7 997.2 6.9 NW 10.6 NW 0.0 66.5
14:55 11.0 11.7 62.4 997.2 5.4 NNW 8.8 NW 0.0 68.0
15:00 11.0 11.6 63.1 997.1 5.1 NW 8.1 WNW 0.0 65.8
15:05 11.0 11.6 64.1 997.2 4.5 NW 7.4 NW 0.0 59.9
15:10 10.9 11.5 63.5 997.2 5.7 NW 9.2 NW 0.0 53.7
15:15 10.9 11.3 62.9 997.3 5.3 NNW 7.8 NW 0.0 48.9
15:20 10.8 11.1 64.6 997.4 6.3 NNW 8.5 NNW 0.0 45.7
15:25 10.7 11.0 64.6 997.5 5.6 NNW 7.4 NNW 0.0 45.0
15:30 10.6 10.9 65.2 997.5 3.5 N 4.6 N 0.0 41.6
15:35 10.5 10.6 67.1 997.5 3.2 N 4.2 N 0.0 36.2
15:40 10.4 10.4 66.8 997.6 3.1 N 3.9 NNW 0.0 29.2
15:45 10.2 10.2 68.6 997.6 4.7 NNW 6.4 NNW 0.0 22.9
15:50 10.0 9.9 67.7 997.6 6.4 NNW 7.4 NNW 0.0 18.1
15:55 9.9 9.7 67.8 997.6 5.3 N 7.1 NNW 0.0 14.0
16:00 9.7 9.4 69.1 997.7 5.3 NNW 7.1 NNW 0.0 11.3
16:05 9.7 9.2 68.0 997.7 5.4 N 7.4 N 0.0 9.0
16:10 9.6 9.0 68.5 997.8 6.3 NNW 8.5 NNW 0.0 6.6
16:15 9.5 8.9 68.5 997.9 6.9 NNW 8.8 NNW 0.0 4.4
16:20 9.5 8.8 68.0 997.9 7.5 NNW 9.5 NNW 0.0 3.9
16:25 9.6 8.9 66.6 997.9 7.0 NNW 8.5 NNW 0.0 3.5
16:30 9.6 8.9 66.3 997.9 5.9 NNW 7.1 NNW 0.0 3.6
16:35 9.5 8.7 67.6 998.0 6.7 NNW 8.8 NNW 0.0 1.2
16:40 9.5 8.6 67.1 998.1 7.0 NNW 9.2 NNW 0.0 0.4
16:45 9.4 8.5 67.8 998.1 7.2 NNW 8.8 NNW 0.0 0.2
16:50 9.3 8.5 68.0 998.3 7.8 NNW 9.2 NNW 0.0 0.1
16:55 9.5 8.6 66.9 998.3 6.0 N 8.5 NNW 0.0 0.1
17:00 9.5 8.5 67.1 998.3 5.0 N 7.1 NNW 0.0 0.1
17:05 9.3 8.2 67.6 998.3 4.1 N 4.9 N 0.0 0.1
17:10 9.2 7.9 68.1 998.3 3.7 N 4.2 N 0.0 0.1
17:15 8.7 7.6 72.2 998.4 5.6 NW 8.8 NW 0.0 0.1
17:20 8.5 7.4 73.1 998.4 5.1 NW 6.7 WNW 0.0 0.1
17:25 8.7 7.5 71.5 998.5 7.8 NW 10.6 NW 0.0 0.1
17:30 9.0 7.9 70.5 998.6 8.4 NNW 11.6 NNW 0.0 0.1
17:35 9.2 8.4 70.0 998.7 9.1 NW 13.8 NW 0.0 0.1
17:40 9.4 8.7 69.1 998.7 10.9 NNW 16.2 NNW 0.0 0.1
17:45 9.5 9.0 67.6 998.8 11.6 NNW 17.6 NW 0.0 0.1
17:50 9.6 9.1 66.5 998.8 12.5 NNW 20.1 NNW 0.0 0.1
17:55 9.6 9.2 65.6 998.8 13.2 NNW 20.1 NNW 0.0 0.1
18:00 9.6 9.2 65.4 998.8 12.1 NNW 18.7 NNW 0.0 0.1
18:05 9.5 9.1 66.0 998.9 10.1 NNW 14.1 NNW 0.0 0.1
18:10 9.4 9.0 66.2 999.0 8.6 NNW 12.7 NNW 0.0 0.1
18:15 9.3 8.8 66.3 999.0 6.1 N 10.2 N 0.0 0.1
18:20 9.3 8.5 66.8 999.2 6.0 E 11.6 ESE 0.0 0.1
18:25 9.2 8.4 67.9 999.3 2.6 ENE 5.6 ENE 0.0 0.1
18:30 9.1 8.3 69.9 999.3 1.9 NE 4.9 ENE 0.0 0.1
18:35 9.0 8.2 70.8 999.4 2.2 N 4.9 NNW 0.0 0.3
18:40 8.8 7.9 71.8 999.5 4.2 N 5.3 N 0.0 0.1
18:45 8.6 7.7 74.1 999.6 3.6 N 7.1 N 0.0 0.1
18:50 8.5 7.6 76.6 999.6 5.0 N 6.4 N 0.0 0.1
18:55 8.5 7.5 79.4 999.6 3.8 N 5.6 N 0.0 0.1
19:00 8.4 7.2 80.1 999.6 0.5 N 2.1 0.0 0.1
19:05 8.4 6.9 81.0 999.7 0.0 N 1.4 N 0.0 0.1
19:10 8.3 6.8 82.2 999.8 0.3 N 2.8 N 0.0 0.1
19:15 8.3 6.8 82.6 999.8 1.5 NW 5.3 NW 0.0 0.1
19:20 8.2 7.0 83.2 999.9 5.6 NW 8.8 WNW 0.0 0.1
19:25 7.9 7.0 85.0 999.8 4.1 NNW 6.7 NW 0.0 0.1
19:30 8.0 7.0 85.1 999.9 2.3 NW 4.6 NNW 0.0 0.1
19:35 7.9 6.9 85.6 999.9 4.0 NW 4.9 NW 0.0 0.1
19:40 8.0 7.1 86.0 999.9 3.3 NNW 4.2 NW 0.0 0.1
19:45 8.1 7.2 85.7 1000.0 4.9 NNW 6.0 NW 0.0 0.1
19:50 8.0 7.2 85.7 1000.0 7.1 NW 9.9 NW 0.0 0.1
19:55 8.0 7.4 81.8 1000.0 7.4 NW 10.2 NNW 0.0 0.1
20:00 8.1 7.4 79.3 999.9 4.3 N 6.0 NNW 0.0 0.1
Màxima 12.6 16.9 86.0 1001.3 30.2 NNW 41.3 NW 0.0 540.1
Mínima 5.0 4.6 58.0 996.0
Total 0.0